Time;durP1;ratioP1;P1;durP2;ratioP2;P2;SDS_P1;SDS_P2;PMS_P1;PMS_P2;Temp;Humidity;BMP_temperature;BMP_pressure;BME280_temperature;BME280_humidity;BME280_pressure;Samples;Min_cycle;Max_cycle;Signal;HPM_P1;HPM_P2
2022/12/17 13:07:29;;;;;;;3.83;2.10;;;7.20;98.40;;;;;;5029185;28;20037;-70
2022/12/17 13:09:57;;;;;;;7.32;3.90;;;7.20;98.50;;;;;;5044194;28;20028;-70
2022/12/17 13:12:34;;;;;;;7.15;4.03;;;7.30;98.30;;;;;;5044685;28;20382;-70
2022/12/17 13:15:05;;;;;;;4.85;2.90;;;7.60;96.70;;;;;;5043178;28;20044;-70
2022/12/17 13:17:55;;;;;;;3.95;2.20;;;7.60;96.40;;;;;;5037087;28;20090;-71
2022/12/17 13:20:28;;;;;;;5.57;3.75;;;7.60;95.70;;;;;;5041814;28;20029;-70
2022/12/17 13:23:35;;;;;;;5.75;2.10;;;7.60;96.40;;;;;;5025786;28;20057;-70
2022/12/17 13:26:16;;;;;;;3.55;1.92;;;7.50;96.50;;;;;;5035692;28;20127;-70
2022/12/17 13:28:47;;;;;;;7.63;6.07;;;7.40;96.20;;;;;;5041121;28;20068;-70
2022/12/17 13:31:27;;;;;;;12.18;10.93;;;7.50;97.00;;;;;;5043602;28;20363;-70
2022/12/17 13:34:15;;;;;;;5.85;3.47;;;7.60;97.70;;;;;;5044416;28;20438;-70
2022/12/17 13:37:04;;;;;;;3.95;2.38;;;7.40;98.20;;;;;;5037734;28;20040;-70
2022/12/17 13:39:54;;;;;;;4.38;2.50;;;7.70;99.90;;;;;;5025773;28;20060;-69
2022/12/17 13:42:23;;;;;;;4.35;2.33;;;7.50;97.10;;;;;;5023026;28;20035;-70
2022/12/17 13:44:49;;;;;;;5.00;2.72;;;7.50;97.30;;;;;;5035817;28;20091;-70
2022/12/17 13:47:26;;;;;;;3.20;1.80;;;7.40;98.00;;;;;;5029278;28;20064;-70
2022/12/17 13:49:54;;;;;;;10.18;6.20;;;7.30;98.40;;;;;;5028715;28;20061;-70
2022/12/17 13:52:24;;;;;;;6.90;3.22;;;7.20;97.70;;;;;;5041965;28;20037;-70
2022/12/17 13:54:49;;;;;;;3.33;1.70;;;7.10;98.00;;;;;;5040892;28;20020;-71
2022/12/17 13:57:21;;;;;;;3.67;1.75;;;7.10;98.10;;;;;;5045481;28;20025;-71
2022/12/17 13:59:52;;;;;;;4.10;1.95;;;7.00;99.00;;;;;;5044328;28;20601;-71
2022/12/17 14:02:35;;;;;;;8.60;4.80;;;7.10;98.90;;;;;;5045317;28;20394;-70
2022/12/17 14:05:03;;;;;;;4.90;2.78;;;7.10;97.80;;;;;;5044268;28;20029;-70
2022/12/17 14:07:32;;;;;;;5.30;2.72;;;7.20;96.90;;;;;;5033935;28;20485;-70
2022/12/17 14:09:58;;;;;;;6.32;3.40;;;7.30;96.60;;;;;;5045636;28;20029;-70
2022/12/17 14:12:25;;;;;;;4.95;2.83;;;7.20;97.00;;;;;;5045717;28;20371;-70
2022/12/17 14:14:55;;;;;;;3.88;2.15;;;7.10;98.20;;;;;;5045742;28;20032;-70
2022/12/17 14:17:26;;;;;;;2.90;1.30;;;6.90;98.80;;;;;;5045246;28;20037;-70
2022/12/17 14:20:14;;;;;;;4.47;1.63;;;6.80;99.50;;;;;;5044978;28;20024;-70
2022/12/17 14:22:43;;;;;;;4.40;1.80;;;6.70;99.20;;;;;;5045354;28;20028;-70
2022/12/17 14:25:32;;;;;;;1.88;1.13;;;6.60;99.90;;;;;;5043896;28;20029;-70
2022/12/17 14:28:04;;;;;;;2.42;1.20;;;6.60;99.20;;;;;;5012578;28;20434;-70
2022/12/17 14:30:36;;;;;;;2.78;1.30;;;6.50;98.90;;;;;;5025741;28;20060;-70
2022/12/17 14:33:03;;;;;;;2.83;1.35;;;6.40;99.20;;;;;;5025372;28;20037;-70
2022/12/17 14:35:33;;;;;;;2.90;1.25;;;6.30;99.90;;;;;;5025776;28;20057;-71
2022/12/17 14:37:59;;;;;;;3.25;1.45;;;6.20;99.80;;;;;;5025715;28;20029;-71
2022/12/17 14:40:25;;;;;;;3.78;1.60;;;6.30;99.90;;;;;;5025333;28;20033;-70
2022/12/17 14:42:57;;;;;;;4.38;2.15;;;6.20;99.90;;;;;;5035813;28;20024;-70
2022/12/17 14:45:25;;;;;;;5.15;2.40;;;6.30;98.90;;;;;;5045441;28;20624;-70
2022/12/17 14:47:59;;;;;;;5.53;2.33;;;5.90;99.90;;;;;;5041779;28;20049;-70
2022/12/17 14:50:34;;;;;;;3.97;1.70;;;6.00;99.90;;;;;;5026999;28;20124;-70
2022/12/17 14:53:02;;;;;;;4.15;1.58;;;6.00;99.90;;;;;;5032318;28;20301;-70
2022/12/17 14:55:37;;;;;;;4.13;2.05;;;6.20;97.90;;;;;;5025094;28;20037;-71
2022/12/17 14:58:15;;;;;;;3.20;1.75;;;6.10;98.30;;;;;;5028549;28;20025;-70
2022/12/17 15:00:45;;;;;;;3.97;2.00;;;6.00;98.40;;;;;;5027984;28;20045;-70
2022/12/17 15:03:26;;;;;;;4.55;2.10;;;5.90;97.90;;;;;;5025871;28;20486;-70
2022/12/17 15:06:01;;;;;;;4.80;2.40;;;5.80;98.40;;;;;;5031201;28;20060;-69
2022/12/17 15:08:32;;;;;;;4.88;2.25;;;5.50;98.70;;;;;;5024467;28;20041;-70
2022/12/17 15:10:57;;;;;;;5.22;2.08;;;5.70;98.30;;;;;;5032147;28;20136;-70
2022/12/17 15:13:23;;;;;;;4.60;2.03;;;5.40;98.90;;;;;;5027326;28;20593;-69
2022/12/17 15:15:49;;;;;;;5.90;3.22;;;5.30;98.90;;;;;;5026092;28;20112;-70
2022/12/17 15:18:14;;;;;;;5.30;2.88;;;5.50;99.00;;;;;;5024799;28;20041;-70
2022/12/17 15:20:40;;;;;;;4.80;2.67;;;5.30;99.30;;;;;;5024834;28;20034;-70
2022/12/17 15:23:14;;;;;;;6.93;3.05;;;5.30;99.30;;;;;;5029385;28;20033;-70
2022/12/17 15:25:40;;;;;;;5.93;3.33;;;5.00;99.90;;;;;;5025076;28;20116;-69
2022/12/17 15:28:06;;;;;;;5.88;2.83;;;4.90;99.90;;;;;;5025896;28;20109;-70
2022/12/17 15:30:32;;;;;;;4.82;2.40;;;5.10;99.60;;;;;;5027747;28;20037;-69
2022/12/17 15:32:58;;;;;;;3.78;2.05;;;5.20;99.10;;;;;;5032192;28;20053;-70
2022/12/17 15:35:23;;;;;;;5.05;2.60;;;5.30;99.40;;;;;;5024799;28;20065;-69
2022/12/17 15:37:49;;;;;;;4.40;2.03;;;5.20;99.80;;;;;;5027796;28;20419;-70
2022/12/17 15:40:14;;;;;;;3.05;1.77;;;5.00;99.90;;;;;;5030434;28;20049;-71
2022/12/17 15:45:25;;;;;;;4.55;2.00;;;4.90;99.90;;;;;;5025316;28;20132;-70
2022/12/17 15:47:51;;;;;;;4.65;2.30;;;5.00;99.90;;;;;;5030996;28;20049;-69
2022/12/17 15:50:17;;;;;;;5.68;2.47;;;5.10;99.70;;;;;;5024682;28;20107;-71
2022/12/17 15:52:42;;;;;;;6.22;2.45;;;5.10;99.70;;;;;;5035438;28;20032;-71
2022/12/17 15:55:10;;;;;;;4.50;2.25;;;4.90;99.90;;;;;;5023334;28;20426;-69
2022/12/17 15:57:35;;;;;;;3.30;1.90;;;4.80;99.90;;;;;;5033377;28;20029;-70
2022/12/17 16:00:01;;;;;;;4.05;2.03;;;4.60;99.90;;;;;;5030754;28;20541;-70
2022/12/17 16:02:27;;;;;;;3.60;1.98;;;4.70;99.90;;;;;;5024102;28;20044;-70
2022/12/17 16:04:53;;;;;;;3.10;1.98;;;4.60;99.90;;;;;;5024238;28;20064;-69
2022/12/17 16:07:18;;;;;;;6.05;3.10;;;4.90;99.90;;;;;;5024212;28;20124;-69
2022/12/17 16:09:44;;;;;;;4.03;2.20;;;4.70;99.90;;;;;;5024023;28;20460;-70
2022/12/17 16:12:09;;;;;;;3.63;1.63;;;4.50;99.90;;;;;;5023841;28;20021;-70
2022/12/17 16:14:35;;;;;;;4.28;1.80;;;4.30;99.90;;;;;;5025489;28;20518;-70
2022/12/17 16:17:01;;;;;;;3.22;1.63;;;4.10;99.90;;;;;;5023627;28;20568;-70
2022/12/17 16:19:27;;;;;;;3.63;1.88;;;4.00;99.90;;;;;;5025005;28;20111;-69
2022/12/17 16:21:52;;;;;;;7.72;3.53;;;4.00;99.90;;;;;;5023461;28;20033;-69
2022/12/17 16:24:18;;;;;;;6.30;3.28;;;4.00;99.90;;;;;;5026852;28;20678;-70
2022/12/17 16:26:44;;;;;;;21.08;10.63;;;4.00;99.90;;;;;;5031927;28;20674;-69
2022/12/17 16:29:09;;;;;;;6.07;2.58;;;4.30;99.90;;;;;;5023818;28;20037;-69
2022/12/17 16:31:36;;;;;;;4.88;2.15;;;4.10;99.90;;;;;;5023282;28;20809;-69
2022/12/17 16:34:01;;;;;;;3.10;1.73;;;4.00;99.90;;;;;;5030814;28;20026;-70
2022/12/17 16:36:27;;;;;;;3.47;1.50;;;3.80;99.90;;;;;;5030874;28;20033;-69
2022/12/17 16:38:53;;;;;;;3.78;1.77;;;3.90;99.90;;;;;;5022580;28;20040;-70
2022/12/17 16:41:21;;;;;;;3.95;1.75;;;3.90;99.90;;;;;;5023390;28;20120;-70
2022/12/17 16:43:47;;;;;;;2.75;1.52;;;4.00;99.90;;;;;;5023682;28;20124;-69
2022/12/17 16:46:34;;;;;;;3.13;1.70;;;3.90;99.90;;;;;;5022873;28;20029;-69
2022/12/17 16:49:11;;;;;;;4.03;1.92;;;3.90;99.90;;;;;;5022655;28;20044;-69
2022/12/17 16:51:38;;;;;;;3.38;1.75;;;4.30;99.90;;;;;;5023172;28;20482;-69
2022/12/17 16:54:06;;;;;;;6.22;2.45;;;4.40;99.90;;;;;;5023030;28;20034;-69
2022/12/17 16:56:32;;;;;;;4.93;1.98;;;4.10;99.90;;;;;;5026990;28;20155;-69
2022/12/17 16:58:58;;;;;;;5.63;2.35;;;3.80;99.90;;;;;;5026059;28;20057;-69
2022/12/17 17:01:27;;;;;;;5.47;2.53;;;3.70;99.90;;;;;;5033223;28;20037;-69
2022/12/17 17:03:54;;;;;;;5.53;2.22;;;3.80;99.90;;;;;;5025362;28;20547;-70
2022/12/17 17:06:20;;;;;;;4.88;2.42;;;3.60;99.90;;;;;;5022967;28;20071;-69
2022/12/17 17:08:45;;;;;;;6.28;3.10;;;4.00;99.90;;;;;;5023447;28;20176;-69
2022/12/17 17:11:14;;;;;;;7.60;3.25;;;4.00;99.90;;;;;;5024200;28;20116;-69
2022/12/17 17:13:41;;;;;;;7.10;3.47;;;3.90;99.90;;;;;;5023102;28;20472;-70
2022/12/17 17:16:08;;;;;;;8.65;3.53;;;4.00;99.90;;;;;;5023211;28;20442;-70
2022/12/17 17:18:34;;;;;;;7.53;3.58;;;3.90;99.90;;;;;;5024297;28;20052;-69
2022/12/17 17:21:15;;;;;;;5.28;2.78;;;4.10;99.90;;;;;;5029757;28;20029;-70
2022/12/17 17:23:42;;;;;;;6.25;3.10;;;4.00;99.90;;;;;;5026641;28;20117;-70
2022/12/17 17:26:09;;;;;;;6.70;3.38;;;3.80;99.90;;;;;;5022367;28;20116;-70
2022/12/17 17:28:34;;;;;;;4.95;2.63;;;3.80;99.90;;;;;;5029190;28;20041;-70
2022/12/17 17:31:02;;;;;;;6.43;3.10;;;3.80;99.90;;;;;;5025840;28;20029;-69
2022/12/17 17:33:33;;;;;;;6.22;3.30;;;4.00;99.90;;;;;;5022727;28;20465;-69
2022/12/17 17:36:12;;;;;;;6.30;2.90;;;4.20;99.90;;;;;;5022502;28;20513;-70
2022/12/17 17:38:39;;;;;;;5.53;1.90;;;4.10;99.90;;;;;;5022410;28;20124;-70
2022/12/17 17:41:07;;;;;;;5.85;2.63;;;4.00;99.90;;;;;;5024718;28;20064;-69
2022/12/17 17:43:33;;;;;;;5.78;3.15;;;4.10;99.90;;;;;;5023466;28;20075;-70
2022/12/17 17:46:08;;;;;;;9.30;3.35;;;4.20;99.90;;;;;;5023013;28;20030;-69
2022/12/17 17:48:34;;;;;;;6.82;3.47;;;4.20;99.90;;;;;;5029495;28;20037;-69
2022/12/17 17:51:03;;;;;;;4.28;2.28;;;4.20;99.90;;;;;;5021550;28;20061;-69
2022/12/17 17:53:29;;;;;;;5.43;2.22;;;4.10;99.90;;;;;;5022068;28;20116;-69
2022/12/17 17:56:01;;;;;;;5.35;2.40;;;3.90;99.90;;;;;;5022051;28;20539;-69
2022/12/17 17:58:27;;;;;;;4.43;1.83;;;3.80;99.90;;;;;;5022142;28;20120;-69
2022/12/17 18:00:54;;;;;;;5.15;3.00;;;3.80;99.90;;;;;;5022562;28;20049;-69
2022/12/17 18:03:19;;;;;;;6.35;3.00;;;3.60;99.90;;;;;;5025866;28;20487;-69
2022/12/17 18:05:45;;;;;;;4.75;2.40;;;3.40;99.90;;;;;;5031817;28;20410;-69
2022/12/17 18:08:11;;;;;;;5.07;2.20;;;3.40;99.90;;;;;;5024193;28;20371;-70
2022/12/17 18:10:36;;;;;;;4.32;2.40;;;3.60;99.90;;;;;;5026190;28;20029;-70
2022/12/17 18:15:46;;;;;;;4.65;1.95;;;3.20;99.90;;;;;;5024699;28;20169;-69
2022/12/17 18:18:12;;;;;;;5.00;2.08;;;3.10;99.90;;;;;;5025129;28;20072;-70
2022/12/17 18:20:37;;;;;;;3.75;2.10;;;3.10;99.90;;;;;;5026898;28;20102;-69
2022/12/17 18:23:03;;;;;;;3.35;1.80;;;3.10;99.90;;;;;;5023668;28;20030;-69
2022/12/17 18:25:29;;;;;;;4.53;2.05;;;3.10;99.90;;;;;;5036630;28;20021;-69
2022/12/17 18:27:54;;;;;;;4.25;2.00;;;3.10;99.90;;;;;;5026885;28;20037;-70
2022/12/17 18:30:20;;;;;;;2.92;1.50;;;3.00;99.90;;;;;;5025137;28;20040;-69
2022/12/17 18:32:46;;;;;;;4.50;2.25;;;3.00;99.90;;;;;;5024799;28;20097;-70
2022/12/17 18:35:11;;;;;;;3.97;2.08;;;3.30;99.90;;;;;;5031501;28;20029;-69
2022/12/17 18:37:37;;;;;;;3.90;1.80;;;3.30;99.90;;;;;;5032278;28;20029;-69
2022/12/17 18:40:05;;;;;;;5.85;2.28;;;3.20;99.90;;;;;;5033164;28;20029;-69
2022/12/17 18:45:15;;;;;;;7.23;3.43;;;3.30;99.90;;;;;;5029917;28;20119;-70
2022/12/17 18:47:43;;;;;;;5.75;2.50;;;3.30;99.90;;;;;;5022683;28;20387;-70
2022/12/17 18:50:09;;;;;;;4.68;2.15;;;3.30;99.90;;;;;;5023608;28;20491;-70
2022/12/17 18:52:35;;;;;;;5.28;2.60;;;3.50;99.90;;;;;;5032006;28;20082;-70
2022/12/17 18:55:01;;;;;;;4.35;2.00;;;3.30;99.90;;;;;;5026460;28;20506;-70
2022/12/17 18:57:27;;;;;;;4.13;2.13;;;3.10;99.90;;;;;;5022929;28;20121;-70
2022/12/17 18:59:52;;;;;;;4.95;2.28;;;3.20;99.90;;;;;;5031158;28;20610;-70
2022/12/17 19:02:18;;;;;;;4.28;2.13;;;3.20;99.90;;;;;;5023285;28;20026;-69
2022/12/17 19:04:43;;;;;;;4.45;2.13;;;3.30;99.90;;;;;;5030787;28;20475;-70
2022/12/17 19:07:09;;;;;;;5.05;2.83;;;3.20;99.90;;;;;;5026664;28;20456;-69
2022/12/17 19:09:35;;;;;;;5.18;2.53;;;3.40;99.90;;;;;;5030937;28;20082;-70
2022/12/17 19:12:03;;;;;;;6.53;3.08;;;3.50;99.90;;;;;;5032690;28;20057;-70
2022/12/17 19:14:29;;;;;;;6.35;3.25;;;3.60;99.90;;;;;;5024724;28;20664;-69
2022/12/17 19:16:56;;;;;;;6.18;3.45;;;3.70;99.90;;;;;;5031880;28;20087;-69
2022/12/17 19:19:23;;;;;;;7.20;3.67;;;3.60;99.90;;;;;;5030138;28;20029;-70
2022/12/17 19:21:50;;;;;;;6.90;3.58;;;3.60;99.90;;;;;;5024287;28;20033;-70
2022/12/17 19:24:18;;;;;;;6.20;3.05;;;3.60;99.90;;;;;;5031579;28;20034;-70
2022/12/17 19:26:44;;;;;;;6.55;3.20;;;3.60;99.90;;;;;;5023834;28;20450;-69
2022/12/17 19:29:12;;;;;;;5.88;3.00;;;3.30;99.90;;;;;;5027217;28;20041;-70
2022/12/17 19:31:37;;;;;;;5.03;2.50;;;3.10;99.90;;;;;;5024144;28;20025;-70
2022/12/17 19:34:05;;;;;;;5.18;2.88;;;2.90;99.90;;;;;;5031001;28;20117;-69
2022/12/17 19:36:33;;;;;;;4.53;2.35;;;2.80;99.90;;;;;;5027481;28;20021;-70
2022/12/17 19:39:01;;;;;;;5.60;2.60;;;3.30;99.90;;;;;;5032139;28;20485;-69
2022/12/17 19:41:28;;;;;;;4.53;2.38;;;3.30;99.90;;;;;;5027763;28;20022;-69
2022/12/17 19:44:00;;;;;;;5.97;2.58;;;3.40;99.90;;;;;;5028527;28;20395;-70
2022/12/17 19:46:25;;;;;;;5.80;2.47;;;3.40;99.90;;;;;;5032128;28;20052;-70
2022/12/17 19:48:52;;;;;;;4.20;2.05;;;3.20;99.90;;;;;;5029575;28;20483;-69
2022/12/17 19:51:21;;;;;;;5.47;2.90;;;3.00;99.90;;;;;;5027411;28;20391;-70
2022/12/17 19:53:47;;;;;;;4.88;2.47;;;3.00;99.90;;;;;;5034189;28;20040;-70
2022/12/17 19:56:17;;;;;;;4.82;2.40;;;3.00;99.90;;;;;;5034006;28;20033;-70
2022/12/17 19:58:44;;;;;;;5.60;2.72;;;3.20;99.90;;;;;;5026764;28;20040;-70
2022/12/17 20:01:15;;;;;;;4.85;2.55;;;2.90;99.90;;;;;;5036592;28;20102;-70
2022/12/17 20:03:42;;;;;;;6.32;2.92;;;3.10;99.90;;;;;;5031649;28;20043;-69
2022/12/17 20:06:09;;;;;;;5.90;2.47;;;3.10;99.90;;;;;;5031754;28;20640;-69
2022/12/17 20:08:35;;;;;;;5.00;2.67;;;3.00;99.90;;;;;;5027507;28;20511;-69
2022/12/17 20:11:31;;;;;;;5.70;2.95;;;2.90;99.90;;;;;;5029374;28;20033;-70
2022/12/17 20:13:58;;;;;;;6.13;2.72;;;3.00;99.90;;;;;;5027377;28;20475;-70
2022/12/17 20:16:24;;;;;;;5.28;2.80;;;3.00;99.90;;;;;;5038298;28;20075;-69
2022/12/17 20:18:50;;;;;;;6.50;3.15;;;3.10;99.90;;;;;;5036406;28;20092;-70
2022/12/17 20:21:16;;;;;;;5.35;2.95;;;3.10;99.90;;;;;;5027770;28;20029;-69
2022/12/17 20:23:44;;;;;;;6.68;3.33;;;3.20;99.90;;;;;;5027572;28;20026;-69
2022/12/17 20:26:10;;;;;;;5.97;2.47;;;3.30;99.90;;;;;;5028411;28;20021;-69
2022/12/17 20:28:36;;;;;;;6.35;3.63;;;3.30;99.90;;;;;;5040578;28;20049;-70
2022/12/17 20:31:03;;;;;;;10.80;3.72;;;3.10;99.90;;;;;;5026125;28;20041;-69
2022/12/17 20:33:30;;;;;;;6.05;2.88;;;2.90;99.90;;;;;;5035141;28;20033;-69
2022/12/17 20:36:05;;;;;;;5.90;3.40;;;3.00;99.90;;;;;;5033362;28;20163;-70
2022/12/17 20:38:31;;;;;;;5.40;2.83;;;3.00;99.90;;;;;;5030261;28;20029;-69
2022/12/17 20:40:57;;;;;;;7.68;3.22;;;3.10;99.90;;;;;;5026483;28;20081;-69
2022/12/17 20:43:23;;;;;;;6.30;3.75;;;3.10;99.90;;;;;;5033542;28;20039;-69
2022/12/17 20:45:50;;;;;;;6.88;3.72;;;2.90;99.90;;;;;;5026851;28;20029;-70
2022/12/17 20:48:16;;;;;;;5.75;3.05;;;3.10;99.90;;;;;;5026036;28;20271;-70
2022/12/17 20:50:43;;;;;;;5.60;2.97;;;3.20;99.90;;;;;;5027445;28;20556;-69
2022/12/17 20:53:09;;;;;;;7.78;3.58;;;3.20;99.90;;;;;;5031257;28;20112;-69
2022/12/17 20:55:34;;;;;;;7.03;3.47;;;3.30;99.90;;;;;;5024624;28;20172;-70
2022/12/17 20:58:00;;;;;;;6.75;2.97;;;3.30;99.90;;;;;;5025299;28;20026;-69
2022/12/17 21:00:25;;;;;;;5.80;3.25;;;3.30;99.90;;;;;;5023638;28;20025;-69
2022/12/17 21:02:51;;;;;;;8.48;3.40;;;3.50;99.90;;;;;;5023196;28;20491;-69
2022/12/17 21:05:17;;;;;;;5.28;2.58;;;3.60;99.90;;;;;;5023773;28;20386;-69
2022/12/17 21:07:45;;;;;;;4.95;2.90;;;3.40;99.90;;;;;;5029602;28;20045;-70
2022/12/17 21:10:11;;;;;;;4.13;2.30;;;3.30;99.90;;;;;;5017477;28;20032;-69
2022/12/17 21:15:21;;;;;;;5.32;2.85;;;3.50;99.90;;;;;;5032065;28;20612;-69
2022/12/17 21:17:47;;;;;;;6.32;3.10;;;3.20;99.90;;;;;;5030357;28;20034;-69
2022/12/17 21:20:13;;;;;;;5.03;2.63;;;3.10;99.90;;;;;;5022132;28;20029;-69
2022/12/17 21:22:42;;;;;;;6.20;3.40;;;3.00;99.90;;;;;;5029626;28;20518;-70
2022/12/17 21:25:08;;;;;;;7.95;4.30;;;3.20;99.90;;;;;;5034142;28;20482;-69
2022/12/17 21:27:34;;;;;;;6.20;3.10;;;3.30;99.90;;;;;;5021867;28;20367;-70
2022/12/17 21:30:00;;;;;;;5.88;2.97;;;3.20;99.90;;;;;;5021913;28;20033;-69
2022/12/17 21:32:26;;;;;;;5.10;3.33;;;3.30;99.90;;;;;;5022287;28;20031;-70
2022/12/17 21:34:52;;;;;;;5.43;2.58;;;3.30;99.90;;;;;;5028921;28;20021;-69
2022/12/17 21:37:17;;;;;;;4.90;2.22;;;2.90;99.90;;;;;;5024518;28;20040;-69
2022/12/17 21:39:43;;;;;;;6.25;2.88;;;2.80;99.90;;;;;;5027274;28;20025;-69
2022/12/17 21:44:53;;;;;;;6.80;3.57;;;2.70;99.90;;;;;;5029376;28;20095;-69
2022/12/17 21:47:19;;;;;;;6.55;2.88;;;2.60;99.90;;;;;;5022618;28;20050;-69
2022/12/17 21:49:45;;;;;;;5.43;2.67;;;2.70;99.90;;;;;;5026476;28;20037;-69
2022/12/17 21:52:11;;;;;;;6.00;2.55;;;2.60;99.90;;;;;;5021727;28;20087;-69
2022/12/17 21:54:37;;;;;;;5.03;2.85;;;2.50;99.90;;;;;;5034728;28;20579;-69
2022/12/17 21:57:02;;;;;;;6.97;3.28;;;2.40;99.90;;;;;;5032213;28;20020;-69
2022/12/17 21:59:28;;;;;;;7.60;3.67;;;2.70;99.90;;;;;;5027056;28;20021;-69
2022/12/17 22:01:55;;;;;;;5.97;3.10;;;2.80;99.90;;;;;;5025964;28;20037;-69
2022/12/17 22:04:22;;;;;;;7.43;3.30;;;2.90;99.90;;;;;;5035785;28;20033;-70
2022/12/17 22:06:48;;;;;;;5.68;3.13;;;2.80;99.90;;;;;;5022186;28;20060;-69
2022/12/17 22:09:13;;;;;;;7.78;3.72;;;2.60;99.90;;;;;;5020954;28;20041;-69
2022/12/17 22:11:39;;;;;;;6.15;3.05;;;2.60;99.90;;;;;;5021845;28;20084;-69
2022/12/17 22:14:05;;;;;;;8.40;3.95;;;2.70;99.90;;;;;;5029171;28;20025;-70
2022/12/17 22:16:34;;;;;;;5.57;3.13;;;2.90;99.90;;;;;;5021413;28;20025;-70
2022/12/17 22:19:02;;;;;;;9.38;3.33;;;2.80;99.90;;;;;;5028908;28;20099;-69
2022/12/17 22:21:27;;;;;;;5.65;2.85;;;2.70;99.90;;;;;;5027617;28;20060;-69
2022/12/17 22:23:53;;;;;;;6.55;3.65;;;2.70;99.90;;;;;;5023287;28;20420;-69
2022/12/17 22:26:19;;;;;;;5.80;3.03;;;2.60;99.90;;;;;;5021316;28;20045;-69
2022/12/17 22:28:48;;;;;;;7.20;3.80;;;2.70;99.90;;;;;;5021915;28;20044;-69
2022/12/17 22:34:02;;;;;;;6.53;4.13;;;2.70;99.90;;;;;;5021165;28;20071;-70
2022/12/17 22:36:30;;;;;;;5.85;3.17;;;2.90;99.90;;;;;;5028266;28;20033;-70
2022/12/17 22:38:58;;;;;;;6.45;3.35;;;2.80;99.90;;;;;;5032293;28;20029;-69
2022/12/17 22:44:08;;;;;;;6.37;3.17;;;2.90;99.90;;;;;;5021419;28;20052;-70
2022/12/17 22:46:34;;;;;;;6.80;3.05;;;2.80;99.90;;;;;;5029797;28;20295;-69
2022/12/17 22:48:59;;;;;;;7.28;3.53;;;3.00;99.90;;;;;;5029695;28;20087;-69
2022/12/17 22:51:25;;;;;;;7.97;3.45;;;3.00;99.90;;;;;;5021875;28;20021;-69
2022/12/17 22:53:52;;;;;;;5.65;2.92;;;3.00;99.90;;;;;;5021176;28;20498;-69
2022/12/17 22:56:18;;;;;;;7.20;3.80;;;3.00;99.90;;;;;;5024004;28;20447;-70
2022/12/17 22:58:44;;;;;;;6.00;3.75;;;2.80;99.90;;;;;;5027941;28;20075;-69
2022/12/17 23:01:11;;;;;;;6.43;3.22;;;2.70;99.90;;;;;;5030996;28;20395;-69
2022/12/17 23:03:37;;;;;;;6.75;3.45;;;2.70;99.90;;;;;;5023911;28;20021;-70
2022/12/17 23:06:14;;;;;;;5.85;3.35;;;2.70;99.90;;;;;;5032654;28;20083;-69
2022/12/17 23:08:41;;;;;;;5.65;3.30;;;2.70;99.90;;;;;;5024167;28;20037;-70
2022/12/17 23:11:14;;;;;;;6.65;3.00;;;2.60;99.90;;;;;;5031336;28;20018;-69
2022/12/17 23:13:40;;;;;;;7.55;3.58;;;2.70;99.90;;;;;;5027385;28;20598;-69
2022/12/17 23:16:08;;;;;;;7.95;3.63;;;2.90;99.90;;;;;;5030728;28;20118;-69
2022/12/17 23:18:34;;;;;;;6.40;3.58;;;2.60;99.90;;;;;;5028354;28;20029;-69
2022/12/17 23:21:14;;;;;;;6.90;3.63;;;2.80;99.90;;;;;;5030765;28;20048;-69
2022/12/17 23:23:40;;;;;;;6.07;2.88;;;2.80;99.90;;;;;;5027089;28;20097;-70
2022/12/17 23:26:15;;;;;;;6.47;3.35;;;2.80;99.90;;;;;;5033844;28;20108;-69
2022/12/17 23:28:41;;;;;;;6.70;3.03;;;2.80;99.90;;;;;;5027448;28;20468;-70
2022/12/17 23:31:09;;;;;;;5.32;2.80;;;2.60;99.90;;;;;;5027971;28;20033;-69
2022/12/17 23:33:34;;;;;;;5.28;3.33;;;2.80;99.90;;;;;;5027589;28;20033;-70
2022/12/17 23:36:09;;;;;;;6.47;2.92;;;2.70;99.90;;;;;;5027930;28;20048;-69
2022/12/17 23:38:35;;;;;;;7.22;3.75;;;2.80;99.90;;;;;;5028637;28;20036;-70
2022/12/17 23:41:12;;;;;;;5.68;3.17;;;2.80;99.90;;;;;;5027361;28;20026;-70
2022/12/17 23:43:38;;;;;;;7.35;3.55;;;2.60;99.90;;;;;;5027936;28;20092;-70
2022/12/17 23:46:05;;;;;;;5.65;3.17;;;2.50;99.90;;;;;;5028949;28;20034;-69
2022/12/17 23:48:36;;;;;;;4.55;3.08;;;2.30;99.90;;;;;;5028340;28;20053;-69
2022/12/17 23:51:02;;;;;;;6.55;3.38;;;2.30;99.90;;;;;;5036030;28;20025;-69
2022/12/17 23:53:30;;;;;;;6.38;3.70;;;2.10;99.90;;;;;;5029389;28;20033;-69
2022/12/17 23:56:07;;;;;;;6.53;2.92;;;2.20;99.90;;;;;;5034956;28;20039;-69
2022/12/17 23:58:35;;;;;;;5.20;2.83;;;2.30;99.90;;;;;;5026837;28;20105;-70
